Terminal Aerodrome Forecast
Issued by NWS

Current Version | Previous Version | Text Only | Print | Product List | Glossary Off
Versions: 1 2 3 4 5 6 7 8 9 10 11 12 13 14

491
FTUS42 KMHX 291121
TAFPGV
TAF
KPGV 291121Z 2912/3012 28006KT P6SM SCT250
     FM291900 26007KT P6SM SCT050
     FM300300 21004KT P6SM BKN050
     FM300600 21003KT 5SM SHRA SCT025 BKN050
      AMD LTD TO CLD VIS AND WIND=

USA.gov is the U.S. government's official web portal to all federal, state and local government web resources and services.